Branon, North Carolina
Current Conditions -  °F | °C
As of 12:54 AM on Tuesday 21 Oct 2014 (Local Time) from KINT Reporting Station
Scattered Clouds Scattered Clouds  
Wind Chill: 59°   Ceiling: Unl
Heat Index: 59°   Visibility: 10mi
Dew Point: 49°   Wind: 3mph
Humidity: 69%   Direction: 210°SSW
Pressure: 29.98"   Gusts: NA
Location:  36.1267°N, 80.6582°W
Report Text: KINT 210454Z AUTO 21003KT 10SM SCT110 15/09 A2998 RMK AO2 SLP145 T01500094 402060044
Loading
Personal Weather Stations






























Interactive Weather Map
Tropical Storm Tracking
New forecast layout! Learn more

10-Day Weather Forecast

Advertisements
Track Severe Weather on mobile